createdAt,value
2019-01-05T00:01:24.117Z,101712.89
2019-01-05T00:04:25.341Z,101693.89
2019-01-05T00:07:14.559Z,101692.21
2019-01-05T00:10:07.006Z,101692.91
2019-01-05T00:13:05.198Z,101694.39
2019-01-05T00:16:10.008Z,101687.64
2019-01-05T00:18:56.042Z,101691.34
2019-01-05T00:21:52.440Z,101699.22
2019-01-05T00:24:44.911Z,101700.73
2019-01-05T00:27:47.537Z,101688.69
2019-01-05T00:30:35.514Z,101699.40
2019-01-05T00:33:31.011Z,101689.52
2019-01-05T00:36:27.368Z,101685.56
2019-01-05T00:39:19.704Z,101686.65
2019-01-05T00:42:12.101Z,101680.00
2019-01-05T00:44:59.970Z,101682.27
2019-01-05T00:47:49.786Z,101679.53
2019-01-05T00:50:55.521Z,101671.42
2019-01-05T00:53:50.934Z,101675.30
2019-01-05T00:56:43.906Z,101681.55
2019-01-05T00:59:43.210Z,101672.09
2019-01-05T01:02:35.487Z,101676.08
2019-01-05T01:05:36.912Z,101659.12
2019-01-05T01:08:29.454Z,101654.52
2019-01-05T01:11:19.232Z,101654.13
2019-01-05T01:14:11.199Z,101653.33
2019-01-05T01:17:15.706Z,101645.17
2019-01-05T01:20:11.081Z,101648.94
2019-01-05T01:23:01.335Z,101646.53
2019-01-05T01:25:55.660Z,101649.48
2019-01-05T01:28:43.835Z,101644.70
2019-01-05T01:31:31.429Z,101636.13
2019-01-05T01:34:27.700Z,101638.85
2019-01-05T01:37:13.760Z,101637.67
2019-01-05T01:40:03.904Z,101634.72
2019-01-05T01:42:51.663Z,101633.31
2019-01-05T01:45:42.691Z,101620.09
2019-01-05T01:48:32.996Z,101622.50
2019-01-05T01:51:21.766Z,101623.08
2019-01-05T01:54:20.826Z,101606.27
2019-01-05T01:57:03.782Z,101607.20
2019-01-05T02:00:22.960Z,101601.49
2019-01-05T02:03:17.794Z,101590.31
2019-01-05T02:06:05.589Z,101593.13
2019-01-05T02:09:04.960Z,101607.35
2019-01-05T02:11:55.577Z,101605.89
2019-01-05T02:14:48.947Z,101600.70
2019-01-05T02:18:34.002Z,101603.36
2019-01-05T02:21:58.787Z,101590.54
2019-01-05T02:25:26.971Z,101601.79
2019-01-05T02:29:20.673Z,101603.30
2019-01-05T02:32:41.425Z,101603.76
2019-01-05T02:36:26.611Z,101614.94
2019-01-05T02:39:55.437Z,101619.00
2019-01-05T02:43:15.011Z,101619.18
2019-01-05T02:47:10.130Z,101618.47
2019-01-05T02:51:03.190Z,101609.09
2019-01-05T02:54:51.378Z,101604.95
2019-01-05T02:58:36.778Z,101594.47
2019-01-05T03:02:24.916Z,101598.73
2019-01-05T03:05:58.565Z,101597.73
2019-01-05T03:09:17.715Z,101601.39
2019-01-05T03:12:45.588Z,101596.98
2019-01-05T03:16:10.086Z,101584.36
2019-01-05T03:19:39.879Z,101567.55
2019-01-05T03:23:16.738Z,101562.22
2019-01-05T03:26:46.620Z,101572.94
2019-01-05T03:30:07.257Z,101575.78
2019-01-05T03:33:21.518Z,101569.59
2019-01-05T03:36:51.657Z,101578.81
2019-01-05T03:40:26.543Z,101573.18
2019-01-05T03:43:49.425Z,101569.42
2019-01-05T03:47:25.191Z,101573.41
2019-01-05T03:50:58.253Z,101572.24
2019-01-05T03:54:41.359Z,101561.22
2019-01-05T03:58:19.558Z,101567.32
2019-01-05T04:01:39.306Z,101563.48
2019-01-05T04:05:20.378Z,101551.91
2019-01-05T04:08:54.140Z,101561.14
2019-01-05T04:12:57.626Z,101554.17
2019-01-05T04:16:32.713Z,101559.42
2019-01-05T04:20:08.956Z,101553.62
2019-01-05T04:23:16.718Z,101552.70
2019-01-05T04:27:02.356Z,101555.82
2019-01-05T04:30:33.092Z,101541.00
2019-01-05T04:33:38.166Z,101542.88
2019-01-05T04:37:28.155Z,101545.93
2019-01-05T04:40:58.819Z,101541.79
2019-01-05T04:44:22.080Z,101540.16
2019-01-05T04:47:56.868Z,101545.35
2019-01-05T04:51:16.860Z,101559.86
2019-01-05T04:54:36.221Z,101565.97
2019-01-05T04:57:55.106Z,101548.56
2019-01-05T05:01:37.657Z,101549.58
2019-01-05T05:05:10.230Z,101551.50
2019-01-05T05:09:01.929Z,101561.67
2019-01-05T05:12:35.112Z,101568.05
2019-01-05T05:16:06.097Z,101565.34
2019-01-05T05:19:18.921Z,101564.44
2019-01-05T05:22:44.323Z,101580.80
2019-01-05T05:26:10.925Z,101568.83
2019-01-05T05:29:47.677Z,101568.13
2019-01-05T05:33:00.427Z,101565.41
2019-01-05T05:36:48.003Z,101570.27
2019-01-05T05:40:32.236Z,101581.70
2019-01-05T05:43:53.118Z,101585.45
2019-01-05T05:47:16.384Z,101594.22
2019-01-05T05:50:58.881Z,101599.39
2019-01-05T05:54:53.191Z,101596.73
2019-01-05T05:58:16.575Z,101599.42
2019-01-05T06:01:59.674Z,101602.09
2019-01-05T06:05:37.289Z,101605.50
2019-01-05T06:09:07.573Z,101604.62
2019-01-05T06:12:15.244Z,101614.80
2019-01-05T06:15:38.471Z,101605.64
2019-01-05T06:19:07.058Z,101603.91
2019-01-05T06:22:51.417Z,101597.97
2019-01-05T06:26:39.273Z,101593.08
2019-01-05T06:30:25.428Z,101598.41
2019-01-05T06:33:57.239Z,101611.88
2019-01-05T06:37:21.192Z,101618.14
2019-01-05T06:40:52.070Z,101629.25
2019-01-05T06:44:23.627Z,101636.19
2019-01-05T06:48:05.994Z,101632.11
2019-01-05T06:51:31.379Z,101633.68
2019-01-05T06:55:27.411Z,101628.36
2019-01-05T06:59:31.162Z,101632.34
2019-01-05T07:02:57.917Z,101636.34
2019-01-05T07:06:37.720Z,101646.05
2019-01-05T07:10:08.920Z,101655.72
2019-01-05T07:13:43.533Z,101657.20
2019-01-05T07:17:30.149Z,101657.72
2019-01-05T07:21:06.756Z,101661.31
2019-01-05T07:24:39.283Z,101669.66
2019-01-05T07:28:01.679Z,101677.67
2019-01-05T07:31:54.158Z,101677.05
2019-01-05T07:35:36.062Z,101689.30
2019-01-05T07:39:03.649Z,101694.48
2019-01-05T07:42:29.458Z,101693.39
2019-01-05T07:45:42.410Z,101705.13
2019-01-05T07:49:27.469Z,101700.81
2019-01-05T07:52:44.212Z,101698.63
2019-01-05T07:56:39.331Z,101710.20
2019-01-05T08:00:12.139Z,101720.31
2019-01-05T08:03:57.710Z,101747.22
2019-01-05T08:07:33.902Z,101744.09
2019-01-05T08:11:06.334Z,101743.59
2019-01-05T08:14:58.334Z,101760.81
2019-01-05T08:18:32.287Z,101750.97
2019-01-05T08:22:19.657Z,101756.44
2019-01-05T08:26:00.578Z,101760.42
2019-01-05T08:29:25.147Z,101757.36
2019-01-05T08:32:49.494Z,101767.00
2019-01-05T08:36:31.565Z,101770.62
2019-01-05T08:39:58.794Z,101771.56
2019-01-05T08:43:45.874Z,101768.96
2019-01-05T08:47:19.800Z,101773.81
2019-01-05T08:50:39.812Z,101775.66
2019-01-05T08:54:21.782Z,101772.28
2019-01-05T08:57:53.404Z,101771.91
2019-01-05T09:01:15.545Z,101782.18
2019-01-05T09:04:52.638Z,101785.92
2019-01-05T09:08:33.389Z,101788.25
2019-01-05T09:11:44.755Z,101789.11
2019-01-05T09:15:28.928Z,101780.27
2019-01-05T09:19:07.224Z,101793.36
2019-01-05T09:22:47.923Z,101785.52
2019-01-05T09:26:34.234Z,101775.02
2019-01-05T09:30:17.336Z,101776.22
2019-01-05T09:33:48.002Z,101792.34
2019-01-05T09:37:12.540Z,101791.42
2019-01-05T09:40:46.283Z,101797.89
2019-01-05T09:44:43.635Z,101793.36
2019-01-05T09:48:21.315Z,101807.19
2019-01-05T09:52:13.860Z,101807.56
2019-01-05T09:55:45.425Z,101802.64
2019-01-05T09:59:12.896Z,101801.52
2019-01-05T10:02:44.999Z,101802.52
2019-01-05T10:06:31.609Z,101805.04
2019-01-05T10:09:58.232Z,101806.59
2019-01-05T10:13:26.692Z,101809.41
2019-01-05T10:17:17.108Z,101807.09
2019-01-05T10:20:45.697Z,101801.27
2019-01-05T10:24:06.425Z,101803.69
2019-01-05T10:27:19.573Z,101804.35
2019-01-05T10:31:00.881Z,101797.69
2019-01-05T10:34:34.272Z,101795.39
2019-01-05T10:38:13.266Z,101788.05
2019-01-05T10:41:41.707Z,101790.64
2019-01-05T10:45:37.648Z,101784.73
2019-01-05T10:49:24.945Z,101796.17
2019-01-05T10:52:52.117Z,101793.35
2019-01-05T10:56:16.158Z,101798.80
2019-01-05T10:59:55.171Z,101809.94
2019-01-05T11:03:31.542Z,101813.47
2019-01-05T11:06:49.335Z,101813.14
2019-01-05T11:10:36.477Z,101824.23
2019-01-05T11:14:22.532Z,101829.77
2019-01-05T11:18:04.334Z,101816.31
2019-01-05T11:21:44.180Z,101814.30
2019-01-05T11:24:58.546Z,101819.16
2019-01-05T11:28:29.067Z,101815.71
2019-01-05T11:31:47.261Z,101821.14
2019-01-05T11:35:21.517Z,101816.49
2019-01-05T11:38:50.323Z,101821.60
2019-01-05T11:42:34.569Z,101812.23
2019-01-05T11:46:16.879Z,101808.48
2019-01-05T11:49:59.135Z,101804.09
2019-01-05T11:53:36.880Z,101811.48
2019-01-05T11:57:11.219Z,101819.41
2019-01-05T12:00:31.463Z,101818.05
2019-01-05T12:03:58.980Z,101816.55
2019-01-05T12:07:28.686Z,101813.09
2019-01-05T12:11:48.016Z,101818.61
2019-01-05T12:15:23.474Z,101818.77
2019-01-05T12:18:58.842Z,101815.78
2019-01-05T12:22:24.110Z,101809.17
2019-01-05T12:25:47.239Z,101821.16
2019-01-05T12:29:15.757Z,101822.77
2019-01-05T12:32:56.790Z,101831.66
2019-01-05T12:36:23.152Z,101839.58
2019-01-05T12:40:19.742Z,101837.16
2019-01-05T12:43:54.496Z,101837.77
2019-01-05T12:47:26.270Z,101841.62
2019-01-05T12:51:07.958Z,101837.30
2019-01-05T12:55:05.177Z,101839.59
2019-01-05T12:58:38.000Z,101846.45
2019-01-05T13:02:12.872Z,101852.03
2019-01-05T13:05:59.772Z,101851.56
2019-01-05T13:09:34.998Z,101874.02
2019-01-05T13:13:30.867Z,101877.16
2019-01-05T13:17:02.080Z,101873.55
2019-01-05T13:20:31.574Z,101888.22
2019-01-05T13:24:03.496Z,101892.53
2019-01-05T13:27:41.757Z,101894.05
2019-01-05T13:30:58.612Z,101904.27
2019-01-05T13:34:28.536Z,101916.59
2019-01-05T13:38:19.522Z,101922.58
2019-01-05T13:42:05.784Z,101919.20
2019-01-05T13:45:44.817Z,101922.08
2019-01-05T13:49:31.700Z,101924.89
2019-01-05T13:52:50.272Z,101929.41
2019-01-05T13:56:02.368Z,101919.11
2019-01-05T13:58:51.326Z,101928.36
2019-01-05T14:01:43.387Z,101933.75
2019-01-05T14:04:39.367Z,101937.27
2019-01-05T14:07:27.161Z,101940.19
2019-01-05T14:10:28.463Z,101943.62
2019-01-05T14:13:13.552Z,101943.91
2019-01-05T14:16:04.401Z,101950.55
2019-01-05T14:18:53.870Z,101934.43
2019-01-05T14:21:45.191Z,101935.66
2019-01-05T14:24:49.664Z,101933.80
2019-01-05T14:27:44.995Z,101931.77
2019-01-05T14:30:36.566Z,101939.49
2019-01-05T14:33:27.889Z,101935.23
2019-01-05T14:36:15.818Z,101938.72
2019-01-05T14:39:04.047Z,101945.37
2019-01-05T14:41:53.534Z,101946.58
2019-01-05T14:44:56.530Z,101943.79
2019-01-05T14:48:01.119Z,101945.67
2019-01-05T14:50:53.119Z,101938.06
2019-01-05T14:53:43.329Z,101950.17
2019-01-05T14:56:47.864Z,101941.86
2019-01-05T14:59:33.424Z,101956.23
2019-01-05T15:02:21.198Z,101963.29
2019-01-05T15:05:22.524Z,101967.51
2019-01-05T15:08:13.993Z,101966.43
2019-01-05T15:11:14.268Z,101977.86
2019-01-05T15:14:02.725Z,101973.47
2019-01-05T15:16:51.970Z,101977.95
2019-01-05T15:19:33.329Z,101986.23
2019-01-05T15:22:32.655Z,101984.93
2019-01-05T15:25:21.097Z,101984.27
2019-01-05T15:28:19.848Z,101992.11
2019-01-05T15:31:07.740Z,101998.12
2019-01-05T15:34:03.158Z,101993.42
2019-01-05T15:36:52.429Z,102008.97
2019-01-05T15:39:53.988Z,102016.75
2019-01-05T15:42:52.683Z,102012.78
2019-01-05T15:45:40.340Z,102017.31
2019-01-05T15:48:47.726Z,102023.56
2019-01-05T15:51:35.728Z,102018.00
2019-01-05T15:54:31.651Z,102028.30
2019-01-05T15:57:22.719Z,102030.15
2019-01-05T16:00:12.437Z,102028.23
2019-01-05T16:02:59.968Z,102035.62
2019-01-05T16:05:51.374Z,102032.34
2019-01-05T16:08:47.767Z,102033.15
2019-01-05T16:11:45.821Z,102031.63
2019-01-05T16:14:33.782Z,102032.75
2019-01-05T16:17:38.470Z,102027.83
2019-01-05T16:20:21.849Z,102019.61
2019-01-05T16:23:10.951Z,102026.25
2019-01-05T16:25:58.504Z,102030.15
2019-01-05T16:28:46.423Z,102031.69
2019-01-05T16:31:35.650Z,102035.62
2019-01-05T16:34:40.951Z,102029.28
2019-01-05T16:37:30.171Z,102029.83
2019-01-05T16:40:25.324Z,102031.89
2019-01-05T16:43:21.743Z,102031.19
2019-01-05T16:46:26.105Z,102040.40
2019-01-05T16:49:13.913Z,102040.22
2019-01-05T16:52:12.325Z,102049.00
2019-01-05T16:55:05.509Z,102044.84
2019-01-05T16:57:53.374Z,102046.11
2019-01-05T17:00:45.427Z,102046.09
2019-01-05T17:03:39.721Z,102048.13
2019-01-05T17:06:28.202Z,102050.10
2019-01-05T17:09:26.706Z,102054.89
2019-01-05T17:12:14.475Z,102052.95
2019-01-05T17:14:58.258Z,102065.95
2019-01-05T17:17:50.871Z,102066.73
2019-01-05T17:20:55.303Z,102065.52
2019-01-05T17:23:42.335Z,102070.63
2019-01-05T17:26:40.405Z,102059.48
2019-01-05T17:29:33.027Z,102054.83
2019-01-05T17:32:22.340Z,102058.03
2019-01-05T17:35:11.386Z,102050.02
2019-01-05T17:38:01.180Z,102049.70
2019-01-05T17:40:49.207Z,102052.64
2019-01-05T17:43:56.644Z,102056.63
2019-01-05T17:47:04.019Z,102053.65
2019-01-05T17:49:52.307Z,102058.36
2019-01-05T17:52:40.305Z,102064.08
2019-01-05T17:55:49.670Z,102064.42
2019-01-05T17:58:56.916Z,102064.25
2019-01-05T18:01:47.983Z,102065.83
2019-01-05T18:04:55.021Z,102066.91
2019-01-05T18:07:44.054Z,102075.11
2019-01-05T18:10:36.308Z,102071.13
2019-01-05T18:13:33.447Z,102073.55
2019-01-05T18:16:21.230Z,102086.17
2019-01-05T18:19:16.546Z,102086.06
2019-01-05T18:22:13.008Z,102086.88
2019-01-05T18:25:00.909Z,102081.08
2019-01-05T18:27:48.792Z,102083.65
2019-01-05T18:30:38.233Z,102085.95
2019-01-05T18:33:27.612Z,102088.83
2019-01-05T18:36:16.950Z,102090.95
2019-01-05T18:39:04.868Z,102094.78
2019-01-05T18:41:53.572Z,102103.59
2019-01-05T18:44:41.582Z,102102.28
2019-01-05T18:47:29.213Z,102104.64
2019-01-05T18:50:17.161Z,102104.45
2019-01-05T18:53:05.798Z,102106.08
2019-01-05T18:55:58.230Z,102103.78
2019-01-05T18:59:00.464Z,102101.18
2019-01-05T19:01:48.823Z,102101.70
2019-01-05T19:04:56.248Z,102104.97
2019-01-05T19:08:03.479Z,102102.61
2019-01-05T19:11:05.042Z,102105.51
2019-01-05T19:14:00.168Z,102107.88
2019-01-05T19:17:01.443Z,102105.95
2019-01-05T19:19:49.682Z,102109.42
2019-01-05T19:22:39.040Z,102118.02
2019-01-05T19:25:31.146Z,102112.41
2019-01-05T19:28:15.035Z,102108.23
2019-01-05T19:31:09.148Z,102113.94
2019-01-05T19:33:57.022Z,102117.72
2019-01-05T19:36:46.069Z,102115.58
2019-01-05T19:39:34.048Z,102117.10
2019-01-05T19:42:26.083Z,102118.91
2019-01-05T19:45:34.603Z,102124.07
2019-01-05T19:48:22.696Z,102132.27
2019-01-05T19:51:21.342Z,102124.53
2019-01-05T19:54:13.552Z,102124.48
2019-01-05T19:57:13.110Z,102126.68
2019-01-05T20:00:02.630Z,102131.67
2019-01-05T20:02:50.739Z,102140.03
2019-01-05T20:05:40.473Z,102137.38
2019-01-05T20:08:41.577Z,102140.75
2019-01-05T20:11:30.028Z,102137.12
2019-01-05T20:14:31.217Z,102137.63
2019-01-05T20:17:29.333Z,102145.33
2019-01-05T20:20:21.363Z,102139.27
2019-01-05T20:23:09.678Z,102142.80
2019-01-05T20:25:59.260Z,102139.11
2019-01-05T20:28:48.621Z,102139.47
2019-01-05T20:31:38.031Z,102147.12
2019-01-05T20:34:36.666Z,102151.30
2019-01-05T20:37:28.927Z,102139.47
2019-01-05T20:40:36.227Z,102141.02
2019-01-05T20:43:24.589Z,102154.11
2019-01-05T20:46:21.200Z,102157.46
2019-01-05T20:49:13.671Z,102155.70
2019-01-05T20:52:01.657Z,102165.43
2019-01-05T20:55:00.702Z,102167.44
2019-01-05T20:58:02.487Z,102169.50
2019-01-05T21:01:09.808Z,102172.50
2019-01-05T21:03:53.053Z,102171.59
2019-01-05T21:06:37.390Z,102178.04
2019-01-05T21:09:32.951Z,102171.39
2019-01-05T21:12:20.640Z,102176.83
2019-01-05T21:15:17.076Z,102177.64
2019-01-05T21:18:13.351Z,102180.57
2019-01-05T21:21:01.259Z,102180.02
2019-01-05T21:23:50.513Z,102187.05
2019-01-05T21:26:45.986Z,102190.70
2019-01-05T21:29:35.568Z,102178.61
2019-01-05T21:32:27.598Z,102181.89
2019-01-05T21:35:15.553Z,102175.82
2019-01-05T21:38:05.007Z,102176.59
2019-01-05T21:40:54.314Z,102189.02
2019-01-05T21:43:46.434Z,102182.57
2019-01-05T21:46:34.641Z,102187.31
2019-01-05T21:49:22.558Z,102188.38
2019-01-05T21:52:10.135Z,102190.61
2019-01-05T21:55:05.251Z,102190.11
2019-01-05T21:58:00.544Z,102192.63
2019-01-05T22:01:05.842Z,102196.69
2019-01-05T22:04:04.880Z,102200.26
2019-01-05T22:06:57.732Z,102198.09
2019-01-05T22:09:58.960Z,102199.84
2019-01-05T22:13:06.918Z,102197.91
2019-01-05T22:15:54.311Z,102196.55
2019-01-05T22:18:42.144Z,102194.84
2019-01-05T22:21:30.310Z,102193.03
2019-01-05T22:24:32.008Z,102201.38
2019-01-05T22:27:21.220Z,102195.52
2019-01-05T22:30:09.274Z,102191.33
2019-01-05T22:32:57.324Z,102192.81
2019-01-05T22:35:49.431Z,102192.72
2019-01-05T22:38:32.175Z,102201.44
2019-01-05T22:41:26.251Z,102206.69
2019-01-05T22:44:27.560Z,102199.33
2019-01-05T22:47:25.409Z,102201.81
2019-01-05T22:50:26.631Z,102208.56
2019-01-05T22:53:12.170Z,102208.00
2019-01-05T22:56:16.515Z,102209.89
2019-01-05T22:59:07.902Z,102214.66
2019-01-05T23:02:00.842Z,102217.20
2019-01-05T23:04:56.304Z,102217.20
2019-01-05T23:07:44.641Z,102211.76
2019-01-05T23:10:47.937Z,102216.74
2019-01-05T23:13:44.385Z,102216.22
2019-01-05T23:16:28.643Z,102213.00
2019-01-05T23:19:17.568Z,102218.14
2019-01-05T23:22:07.352Z,102213.15
2019-01-05T23:25:01.650Z,102209.63
2019-01-05T23:27:53.953Z,102214.55
2019-01-05T23:30:40.508Z,102214.93
2019-01-05T23:33:32.582Z,102216.86
2019-01-05T23:36:20.694Z,102210.31
2019-01-05T23:39:08.807Z,102215.01
2019-01-05T23:41:57.065Z,102207.86
2019-01-05T23:44:42.728Z,102214.06
2019-01-05T23:47:47.157Z,102206.28
2019-01-05T23:50:35.418Z,102211.64
2019-01-05T23:53:31.274Z,102205.39
2019-01-05T23:56:41.628Z,102203.16
2019-01-05T23:59:29.902Z,102210.48
